sensor_id;sensor_type;location;lat;lon;timestamp;pressure;altitude;pressure_sealevel;temperature;humidity
20860;BME280;10590;48.154;11.514;2023-02-19T00:02:52;96116.56;;;10.24;62.59
20860;BME280;10590;48.154;11.514;2023-02-19T00:07:56;96120.50;;;10.26;62.77
20860;BME280;10590;48.154;11.514;2023-02-19T00:12:58;96120.19;;;10.28;63.19
20860;BME280;10590;48.154;11.514;2023-02-19T00:18:01;96111.53;;;10.22;63.21
20860;BME280;10590;48.154;11.514;2023-02-19T00:23:02;96109.34;;;10.24;63.07
20860;BME280;10590;48.154;11.514;2023-02-19T00:28:04;96108.56;;;10.24;63.28
20860;BME280;10590;48.154;11.514;2023-02-19T00:33:07;96104.88;;;10.19;63.28
20860;BME280;10590;48.154;11.514;2023-02-19T00:38:08;96092.56;;;10.24;62.96
20860;BME280;10590;48.154;11.514;2023-02-19T00:43:10;96086.72;;;10.21;63.09
20860;BME280;10590;48.154;11.514;2023-02-19T00:48:13;96088.19;;;10.28;62.97
20860;BME280;10590;48.154;11.514;2023-02-19T00:53:14;96084.44;;;10.29;62.96
20860;BME280;10590;48.154;11.514;2023-02-19T00:58:16;96083.94;;;10.27;62.94
20860;BME280;10590;48.154;11.514;2023-02-19T01:03:19;96081.28;;;10.27;62.93
20860;BME280;10590;48.154;11.514;2023-02-19T01:08:22;96074.06;;;10.27;62.90
20860;BME280;10590;48.154;11.514;2023-02-19T01:13:25;96071.59;;;10.31;62.82
20860;BME280;10590;48.154;11.514;2023-02-19T01:18:29;96057.47;;;10.30;62.70
20860;BME280;10590;48.154;11.514;2023-02-19T01:23:30;96055.22;;;10.24;63.12
20860;BME280;10590;48.154;11.514;2023-02-19T01:28:32;96053.03;;;10.26;63.03
20860;BME280;10590;48.154;11.514;2023-02-19T01:33:36;96070.63;;;10.27;63.09
20860;BME280;10590;48.154;11.514;2023-02-19T01:38:37;96051.28;;;10.21;63.11
20860;BME280;10590;48.154;11.514;2023-02-19T01:43:56;96055.53;;;10.22;63.37
20860;BME280;10590;48.154;11.514;2023-02-19T01:49:03;96047.31;;;10.18;63.37
20860;BME280;10590;48.154;11.514;2023-02-19T01:54:07;96044.63;;;10.18;63.67
20860;BME280;10590;48.154;11.514;2023-02-19T01:59:10;96031.72;;;10.12;64.02
20860;BME280;10590;48.154;11.514;2023-02-19T02:04:14;96028.88;;;10.08;64.10
20860;BME280;10590;48.154;11.514;2023-02-19T02:09:18;96039.53;;;9.72;68.14
20860;BME280;10590;48.154;11.514;2023-02-19T02:14:40;96035.28;;;9.44;70.48
20860;BME280;10590;48.154;11.514;2023-02-19T02:20:00;96031.66;;;9.26;72.20
20860;BME280;10590;48.154;11.514;2023-02-19T02:30:45;96017.16;;;8.91;74.94
20860;BME280;10590;48.154;11.514;2023-02-19T02:35:50;96010.72;;;8.78;76.43
20860;BME280;10590;48.154;11.514;2023-02-19T02:40:54;96009.72;;;8.74;76.35
20860;BME280;10590;48.154;11.514;2023-02-19T02:45:57;96012.34;;;8.60;77.50
20860;BME280;10590;48.154;11.514;2023-02-19T02:51:05;96002.47;;;8.28;80.15
20860;BME280;10590;48.154;11.514;2023-02-19T02:56:12;95993.53;;;8.06;81.94
20860;BME280;10590;48.154;11.514;2023-02-19T03:01:18;95997.63;;;7.98;83.08
20860;BME280;10590;48.154;11.514;2023-02-19T03:06:41;95979.63;;;7.95;83.11
20860;BME280;10590;48.154;11.514;2023-02-19T03:11:45;95979.69;;;7.90;83.73
20860;BME280;10590;48.154;11.514;2023-02-19T03:17:17;95981.97;;;7.78;84.06
20860;BME280;10590;48.154;11.514;2023-02-19T03:22:37;95976.44;;;7.74;83.81
20860;BME280;10590;48.154;11.514;2023-02-19T03:27:41;95979.28;;;7.83;83.86
20860;BME280;10590;48.154;11.514;2023-02-19T03:32:49;95982.22;;;7.81;83.44
20860;BME280;10590;48.154;11.514;2023-02-19T03:37:56;95978.22;;;7.79;84.02
20860;BME280;10590;48.154;11.514;2023-02-19T03:43:06;95980.03;;;7.64;84.27
20860;BME280;10590;48.154;11.514;2023-02-19T03:48:20;95973.22;;;7.58;85.56
20860;BME280;10590;48.154;11.514;2023-02-19T03:53:27;95976.72;;;7.54;85.34
20860;BME280;10590;48.154;11.514;2023-02-19T03:58:33;95970.84;;;7.57;84.67
20860;BME280;10590;48.154;11.514;2023-02-19T04:03:42;95972.44;;;7.58;84.81
20860;BME280;10590;48.154;11.514;2023-02-19T04:08:48;95970.69;;;7.48;84.89
20860;BME280;10590;48.154;11.514;2023-02-19T04:13:57;95964.03;;;7.51;84.71
20860;BME280;10590;48.154;11.514;2023-02-19T04:19:06;95958.50;;;7.47;85.05
20860;BME280;10590;48.154;11.514;2023-02-19T04:24:12;95938.97;;;7.38;84.91
20860;BME280;10590;48.154;11.514;2023-02-19T04:29:15;95955.84;;;7.47;84.43
20860;BME280;10590;48.154;11.514;2023-02-19T04:34:18;95955.34;;;7.45;83.99
20860;BME280;10590;48.154;11.514;2023-02-19T04:39:19;95964.59;;;7.48;83.66
20860;BME280;10590;48.154;11.514;2023-02-19T04:44:21;95962.38;;;7.36;84.35
20860;BME280;10590;48.154;11.514;2023-02-19T04:49:24;95977.09;;;7.47;83.55
20860;BME280;10590;48.154;11.514;2023-02-19T04:54:26;95978.72;;;7.43;83.30
20860;BME280;10590;48.154;11.514;2023-02-19T04:59:27;95971.00;;;7.47;83.03
20860;BME280;10590;48.154;11.514;2023-02-19T05:04:30;95975.72;;;7.50;82.14
20860;BME280;10590;48.154;11.514;2023-02-19T05:09:32;95978.09;;;7.51;82.28
20860;BME280;10590;48.154;11.514;2023-02-19T05:14:33;95983.34;;;7.56;82.14
20860;BME280;10590;48.154;11.514;2023-02-19T05:19:36;95984.56;;;7.64;81.80
20860;BME280;10590;48.154;11.514;2023-02-19T05:24:38;95987.78;;;7.61;81.95
20860;BME280;10590;48.154;11.514;2023-02-19T05:29:39;95993.81;;;7.66;81.63
20860;BME280;10590;48.154;11.514;2023-02-19T05:34:42;95980.03;;;7.64;80.78
20860;BME280;10590;48.154;11.514;2023-02-19T05:39:44;95994.88;;;7.65;80.73
20860;BME280;10590;48.154;11.514;2023-02-19T05:44:45;96010.09;;;7.79;80.19
20860;BME280;10590;48.154;11.514;2023-02-19T05:49:49;95994.75;;;7.76;79.47
20860;BME280;10590;48.154;11.514;2023-02-19T05:54:50;96017.25;;;7.83;79.66
20860;BME280;10590;48.154;11.514;2023-02-19T05:59:52;96030.47;;;7.88;79.42
20860;BME280;10590;48.154;11.514;2023-02-19T06:05:10;96017.31;;;7.97;78.45
20860;BME280;10590;48.154;11.514;2023-02-19T06:10:12;96027.06;;;8.02;78.18
20860;BME280;10590;48.154;11.514;2023-02-19T06:15:13;96025.22;;;8.02;78.10
20860;BME280;10590;48.154;11.514;2023-02-19T06:20:17;96021.84;;;7.96;78.08
20860;BME280;10590;48.154;11.514;2023-02-19T06:25:18;96025.78;;;7.99;77.82
20860;BME280;10590;48.154;11.514;2023-02-19T06:30:20;96037.94;;;8.05;77.36
20860;BME280;10590;48.154;11.514;2023-02-19T06:35:23;96048.41;;;8.15;76.46
20860;BME280;10590;48.154;11.514;2023-02-19T06:40:25;96042.59;;;8.13;76.81
20860;BME280;10590;48.154;11.514;2023-02-19T06:45:26;96056.59;;;8.19;76.81
20860;BME280;10590;48.154;11.514;2023-02-19T06:50:29;96064.78;;;8.22;76.47
20860;BME280;10590;48.154;11.514;2023-02-19T06:55:30;96059.16;;;8.24;76.57
20860;BME280;10590;48.154;11.514;2023-02-19T07:00:32;96076.88;;;8.34;76.24
20860;BME280;10590;48.154;11.514;2023-02-19T07:05:36;96080.66;;;8.46;75.66
20860;BME280;10590;48.154;11.514;2023-02-19T07:10:37;96096.03;;;8.49;75.47
20860;BME280;10590;48.154;11.514;2023-02-19T07:15:39;96105.00;;;8.53;75.69
20860;BME280;10590;48.154;11.514;2023-02-19T07:20:42;96116.31;;;8.45;75.91
20860;BME280;10590;48.154;11.514;2023-02-19T07:25:43;96117.09;;;8.46;76.23
20860;BME280;10590;48.154;11.514;2023-02-19T07:30:45;96113.28;;;8.52;76.47
20860;BME280;10590;48.154;11.514;2023-02-19T07:35:48;96128.09;;;8.58;76.21
20860;BME280;10590;48.154;11.514;2023-02-19T07:40:51;96130.03;;;8.52;77.12
20860;BME280;10590;48.154;11.514;2023-02-19T07:45:52;96135.78;;;8.59;77.31
20860;BME280;10590;48.154;11.514;2023-02-19T07:50:57;96147.22;;;8.60;76.93
20860;BME280;10590;48.154;11.514;2023-02-19T07:56:00;96151.16;;;8.62;76.31
20860;BME280;10590;48.154;11.514;2023-02-19T08:01:06;96155.63;;;8.67;75.91
20860;BME280;10590;48.154;11.514;2023-02-19T08:06:10;96167.91;;;8.63;76.40
20860;BME280;10590;48.154;11.514;2023-02-19T08:11:12;96164.03;;;8.74;76.13
20860;BME280;10590;48.154;11.514;2023-02-19T08:16:31;96174.59;;;8.79;75.33
20860;BME280;10590;48.154;11.514;2023-02-19T08:21:34;96181.00;;;8.78;75.63
20860;BME280;10590;48.154;11.514;2023-02-19T08:26:35;96184.16;;;8.80;75.54
20860;BME280;10590;48.154;11.514;2023-02-19T08:31:37;96185.75;;;8.81;74.61
20860;BME280;10590;48.154;11.514;2023-02-19T08:36:40;96199.41;;;8.93;74.29
20860;BME280;10590;48.154;11.514;2023-02-19T08:41:43;96192.88;;;8.86;74.17
20860;BME280;10590;48.154;11.514;2023-02-19T08:46:44;96203.53;;;9.18;72.41
20860;BME280;10590;48.154;11.514;2023-02-19T08:51:47;96218.41;;;9.19;73.66
20860;BME280;10590;48.154;11.514;2023-02-19T08:56:49;96232.91;;;8.94;74.08
20860;BME280;10590;48.154;11.514;2023-02-19T09:01:50;96228.09;;;8.97;73.98
20860;BME280;10590;48.154;11.514;2023-02-19T09:06:54;96203.66;;;8.76;72.81
20860;BME280;10590;48.154;11.514;2023-02-19T09:11:55;96238.53;;;8.74;71.42
20860;BME280;10590;48.154;11.514;2023-02-19T09:16:57;96238.53;;;8.74;70.49
20860;BME280;10590;48.154;11.514;2023-02-19T09:22:00;96251.34;;;8.72;70.07
20860;BME280;10590;48.154;11.514;2023-02-19T09:27:02;96251.06;;;8.74;70.17
20860;BME280;10590;48.154;11.514;2023-02-19T09:32:04;96243.63;;;9.08;69.96
20860;BME280;10590;48.154;11.514;2023-02-19T09:37:07;96251.66;;;8.66;67.72
20860;BME280;10590;48.154;11.514;2023-02-19T09:42:12;96256.91;;;8.28;67.67
20860;BME280;10590;48.154;11.514;2023-02-19T09:47:18;96276.81;;;8.30;68.88
20860;BME280;10590;48.154;11.514;2023-02-19T09:52:29;96290.00;;;8.17;68.21
20860;BME280;10590;48.154;11.514;2023-02-19T09:57:34;96260.41;;;8.23;66.02
20860;BME280;10590;48.154;11.514;2023-02-19T10:02:37;96281.72;;;8.66;65.46
20860;BME280;10590;48.154;11.514;2023-02-19T10:07:42;96265.38;;;8.97;63.97
20860;BME280;10590;48.154;11.514;2023-02-19T10:12:49;96257.97;;;10.18;61.69
20860;BME280;10590;48.154;11.514;2023-02-19T10:17:52;96259.00;;;11.00;57.42
20860;BME280;10590;48.154;11.514;2023-02-19T10:23:00;96253.41;;;11.10;55.41
20860;BME280;10590;48.154;11.514;2023-02-19T10:28:03;96265.84;;;11.28;53.76
20860;BME280;10590;48.154;11.514;2023-02-19T10:33:09;96266.22;;;11.22;54.84
20860;BME280;10590;48.154;11.514;2023-02-19T10:38:15;96274.66;;;11.29;54.20
20860;BME280;10590;48.154;11.514;2023-02-19T10:43:21;96262.72;;;12.10;53.32
20860;BME280;10590;48.154;11.514;2023-02-19T10:48:31;96244.66;;;12.90;50.31
20860;BME280;10590;48.154;11.514;2023-02-19T10:53:39;96302.41;;;11.86;51.05
20860;BME280;10590;48.154;11.514;2023-02-19T10:58:43;96256.28;;;12.51;49.82
20860;BME280;10590;48.154;11.514;2023-02-19T11:03:47;96242.97;;;12.20;50.83
20860;BME280;10590;48.154;11.514;2023-02-19T11:08:53;96246.59;;;11.40;52.97
20860;BME280;10590;48.154;11.514;2023-02-19T11:13:56;96253.81;;;10.81;54.05
20860;BME280;10590;48.154;11.514;2023-02-19T11:18:58;96239.75;;;11.11;53.91
20860;BME280;10590;48.154;11.514;2023-02-19T11:24:02;96244.84;;;10.99;53.47
20860;BME280;10590;48.154;11.514;2023-02-19T11:29:15;96243.84;;;11.09;54.22
20860;BME280;10590;48.154;11.514;2023-02-19T11:34:26;96244.47;;;11.51;52.61
20860;BME280;10590;48.154;11.514;2023-02-19T11:39:30;96251.88;;;11.31;53.90
20860;BME280;10590;48.154;11.514;2023-02-19T11:44:44;96256.34;;;10.50;57.06
20860;BME280;10590;48.154;11.514;2023-02-19T11:49:56;96265.81;;;9.36;65.19
20860;BME280;10590;48.154;11.514;2023-02-19T11:55:11;96265.56;;;9.51;62.12
20860;BME280;10590;48.154;11.514;2023-02-19T12:00:22;96273.84;;;9.82;60.26
20860;BME280;10590;48.154;11.514;2023-02-19T12:05:42;96260.81;;;9.81;58.17
20860;BME280;10590;48.154;11.514;2023-02-19T12:11:00;96265.38;;;9.94;56.79
20860;BME280;10590;48.154;11.514;2023-02-19T12:16:16;96269.47;;;10.33;55.53
20860;BME280;10590;48.154;11.514;2023-02-19T12:21:31;96269.69;;;10.50;54.35
20860;BME280;10590;48.154;11.514;2023-02-19T12:26:42;96267.31;;;11.34;52.69
20860;BME280;10590;48.154;11.514;2023-02-19T12:32:08;96278.47;;;11.00;52.65
20860;BME280;10590;48.154;11.514;2023-02-19T12:37:25;96297.06;;;10.42;55.22
20860;BME280;10590;48.154;11.514;2023-02-19T12:42:43;96311.03;;;9.74;57.82
20860;BME280;10590;48.154;11.514;2023-02-19T12:47:57;96305.88;;;9.12;60.80
20860;BME280;10590;48.154;11.514;2023-02-19T12:53:08;96315.34;;;9.00;60.32
20860;BME280;10590;48.154;11.514;2023-02-19T12:58:34;96314.44;;;9.09;58.23
20860;BME280;10590;48.154;11.514;2023-02-19T13:03:40;96312.00;;;9.45;57.63
20860;BME280;10590;48.154;11.514;2023-02-19T13:08:51;96318.38;;;9.31;55.80
20860;BME280;10590;48.154;11.514;2023-02-19T13:13:59;96317.13;;;9.42;56.07
20860;BME280;10590;48.154;11.514;2023-02-19T13:19:03;96313.19;;;9.58;56.12
20860;BME280;10590;48.154;11.514;2023-02-19T13:24:07;96331.16;;;9.47;57.39
20860;BME280;10590;48.154;11.514;2023-02-19T13:29:26;96337.66;;;9.60;56.56
20860;BME280;10590;48.154;11.514;2023-02-19T13:34:43;96308.25;;;9.65;56.42
20860;BME280;10590;48.154;11.514;2023-02-19T13:39:50;96299.31;;;9.75;56.50
20860;BME280;10590;48.154;11.514;2023-02-19T13:44:54;96299.84;;;9.58;57.20
20860;BME280;10590;48.154;11.514;2023-02-19T13:50:04;96310.38;;;9.31;57.99
20860;BME280;10590;48.154;11.514;2023-02-19T14:00:50;96319.25;;;9.07;60.13
20860;BME280;10590;48.154;11.514;2023-02-19T14:05:59;96308.16;;;9.19;59.77
20860;BME280;10590;48.154;11.514;2023-02-19T14:11:00;96316.00;;;9.10;59.05
20860;BME280;10590;48.154;11.514;2023-02-19T14:21:52;96313.78;;;8.99;59.97
20860;BME280;10590;48.154;11.514;2023-02-19T14:26:55;96310.25;;;9.03;60.23
20860;BME280;10590;48.154;11.514;2023-02-19T14:32:03;96306.72;;;8.89;60.52
20860;BME280;10590;48.154;11.514;2023-02-19T14:37:13;96324.13;;;8.81;60.90
20860;BME280;10590;48.154;11.514;2023-02-19T14:42:21;96308.50;;;8.75;60.54
20860;BME280;10590;48.154;11.514;2023-02-19T14:47:29;96315.00;;;8.87;60.71
20860;BME280;10590;48.154;11.514;2023-02-19T14:52:36;96303.78;;;8.67;60.85
20860;BME280;10590;48.154;11.514;2023-02-19T14:57:43;96319.94;;;8.75;60.76
20860;BME280;10590;48.154;11.514;2023-02-19T15:02:49;96336.41;;;8.77;61.28
20860;BME280;10590;48.154;11.514;2023-02-19T15:07:51;96341.44;;;8.79;60.94
20860;BME280;10590;48.154;11.514;2023-02-19T15:12:56;96334.63;;;8.73;60.85
20860;BME280;10590;48.154;11.514;2023-02-19T15:18:01;96338.00;;;8.54;60.94
20860;BME280;10590;48.154;11.514;2023-02-19T15:23:05;96359.34;;;8.73;60.73
20860;BME280;10590;48.154;11.514;2023-02-19T15:28:27;96362.63;;;8.89;60.58
20860;BME280;10590;48.154;11.514;2023-02-19T15:33:31;96367.16;;;8.88;59.63
20860;BME280;10590;48.154;11.514;2023-02-19T15:38:33;96378.16;;;9.01;60.10
20860;BME280;10590;48.154;11.514;2023-02-19T15:43:40;96366.69;;;8.81;59.70
20860;BME280;10590;48.154;11.514;2023-02-19T15:48:55;96351.06;;;8.51;60.03
20860;BME280;10590;48.154;11.514;2023-02-19T15:54:04;96371.72;;;8.59;60.49
20860;BME280;10590;48.154;11.514;2023-02-19T15:59:19;96380.38;;;8.46;60.13
20860;BME280;10590;48.154;11.514;2023-02-19T16:04:25;96373.03;;;8.38;60.13
20860;BME280;10590;48.154;11.514;2023-02-19T16:09:29;96369.34;;;8.34;60.24
20860;BME280;10590;48.154;11.514;2023-02-19T16:14:32;96364.56;;;8.30;60.42
20860;BME280;10590;48.154;11.514;2023-02-19T16:19:43;96377.97;;;8.20;60.93
20860;BME280;10590;48.154;11.514;2023-02-19T16:24:48;96392.19;;;8.06;61.20
20860;BME280;10590;48.154;11.514;2023-02-19T16:29:51;96402.03;;;8.05;61.02
20860;BME280;10590;48.154;11.514;2023-02-19T16:34:53;96407.94;;;7.97;61.49
20860;BME280;10590;48.154;11.514;2023-02-19T16:45:46;96412.03;;;7.79;61.93
20860;BME280;10590;48.154;11.514;2023-02-19T16:50:49;96428.53;;;7.81;62.15
20860;BME280;10590;48.154;11.514;2023-02-19T16:55:51;96422.97;;;7.73;62.55
20860;BME280;10590;48.154;11.514;2023-02-19T17:00:52;96441.03;;;7.81;63.19
20860;BME280;10590;48.154;11.514;2023-02-19T17:05:56;96447.91;;;7.82;63.39
20860;BME280;10590;48.154;11.514;2023-02-19T17:10:58;96458.22;;;7.88;63.26
20860;BME280;10590;48.154;11.514;2023-02-19T17:16:04;96464.84;;;7.91;63.06
20860;BME280;10590;48.154;11.514;2023-02-19T17:21:12;96459.97;;;8.03;62.67
20860;BME280;10590;48.154;11.514;2023-02-19T17:26:17;96465.03;;;8.05;62.46
20860;BME280;10590;48.154;11.514;2023-02-19T17:31:19;96473.78;;;8.05;62.53
20860;BME280;10590;48.154;11.514;2023-02-19T17:36:24;96499.84;;;8.03;62.63
20860;BME280;10590;48.154;11.514;2023-02-19T17:41:29;96486.59;;;7.98;62.44
20860;BME280;10590;48.154;11.514;2023-02-19T17:46:31;96489.53;;;7.96;62.60
20860;BME280;10590;48.154;11.514;2023-02-19T17:51:34;96495.91;;;7.95;62.48
20860;BME280;10590;48.154;11.514;2023-02-19T17:56:36;96514.00;;;7.93;62.88
20860;BME280;10590;48.154;11.514;2023-02-19T18:01:42;96516.38;;;7.95;63.58
20860;BME280;10590;48.154;11.514;2023-02-19T18:06:46;96529.66;;;7.95;63.70
20860;BME280;10590;48.154;11.514;2023-02-19T18:11:48;96538.44;;;7.95;63.83
20860;BME280;10590;48.154;11.514;2023-02-19T18:16:49;96553.56;;;8.00;63.73
20860;BME280;10590;48.154;11.514;2023-02-19T18:21:52;96557.03;;;7.95;64.07
20860;BME280;10590;48.154;11.514;2023-02-19T18:26:54;96572.44;;;7.98;64.15
20860;BME280;10590;48.154;11.514;2023-02-19T18:31:56;96580.19;;;7.90;64.37
20860;BME280;10590;48.154;11.514;2023-02-19T18:36:59;96564.78;;;7.87;64.92
20860;BME280;10590;48.154;11.514;2023-02-19T18:42:01;96587.63;;;7.88;65.23
20860;BME280;10590;48.154;11.514;2023-02-19T18:47:02;96598.03;;;7.84;65.43
20860;BME280;10590;48.154;11.514;2023-02-19T18:52:06;96603.84;;;7.86;65.28
20860;BME280;10590;48.154;11.514;2023-02-19T18:57:07;96606.53;;;7.81;65.11
20860;BME280;10590;48.154;11.514;2023-02-19T19:02:10;96614.75;;;7.85;64.56
20860;BME280;10590;48.154;11.514;2023-02-19T19:07:14;96620.63;;;7.82;64.98
20860;BME280;10590;48.154;11.514;2023-02-19T19:12:16;96615.31;;;7.72;64.75
20860;BME280;10590;48.154;11.514;2023-02-19T19:17:18;96602.06;;;7.66;64.71
20860;BME280;10590;48.154;11.514;2023-02-19T19:22:21;96612.13;;;7.70;65.28
20860;BME280;10590;48.154;11.514;2023-02-19T19:27:24;96605.50;;;7.67;65.41
20860;BME280;10590;48.154;11.514;2023-02-19T19:32:25;96598.91;;;7.59;65.77
20860;BME280;10590;48.154;11.514;2023-02-19T19:37:28;96602.09;;;7.56;66.19
20860;BME280;10590;48.154;11.514;2023-02-19T19:42:30;96594.94;;;7.57;65.84
20860;BME280;10590;48.154;11.514;2023-02-19T19:47:31;96600.50;;;7.55;65.69
20860;BME280;10590;48.154;11.514;2023-02-19T19:52:34;96589.34;;;7.53;65.82
20860;BME280;10590;48.154;11.514;2023-02-19T19:57:36;96594.13;;;7.56;65.10
20860;BME280;10590;48.154;11.514;2023-02-19T20:02:38;96592.53;;;7.55;65.48
20860;BME280;10590;48.154;11.514;2023-02-19T20:07:41;96595.94;;;7.66;64.65
20860;BME280;10590;48.154;11.514;2023-02-19T20:12:43;96606.56;;;7.66;65.31
20860;BME280;10590;48.154;11.514;2023-02-19T20:17:45;96611.63;;;7.62;64.90
20860;BME280;10590;48.154;11.514;2023-02-19T20:22:48;96616.16;;;7.62;65.13
20860;BME280;10590;48.154;11.514;2023-02-19T20:27:51;96618.03;;;7.56;65.27
20860;BME280;10590;48.154;11.514;2023-02-19T20:32:53;96617.25;;;7.56;65.19
20860;BME280;10590;48.154;11.514;2023-02-19T20:37:56;96615.41;;;7.51;65.54
20860;BME280;10590;48.154;11.514;2023-02-19T20:42:58;96622.28;;;7.52;65.84
20860;BME280;10590;48.154;11.514;2023-02-19T20:48:00;96616.44;;;7.55;65.74
20860;BME280;10590;48.154;11.514;2023-02-19T20:53:03;96606.41;;;7.42;65.89
20860;BME280;10590;48.154;11.514;2023-02-19T20:58:05;96619.94;;;7.46;65.99
20860;BME280;10590;48.154;11.514;2023-02-19T21:03:06;96621.25;;;7.43;66.29
20860;BME280;10590;48.154;11.514;2023-02-19T21:08:12;96629.75;;;7.40;66.03
20860;BME280;10590;48.154;11.514;2023-02-19T21:13:14;96630.28;;;7.42;65.81
20860;BME280;10590;48.154;11.514;2023-02-19T21:18:15;96604.31;;;7.24;66.30
20860;BME280;10590;48.154;11.514;2023-02-19T21:23:20;96634.28;;;7.34;66.01
20860;BME280;10590;48.154;11.514;2023-02-19T21:28:23;96641.97;;;7.41;65.97
20860;BME280;10590;48.154;11.514;2023-02-19T21:33:24;96635.34;;;7.39;66.42
20860;BME280;10590;48.154;11.514;2023-02-19T21:38:27;96636.66;;;7.41;66.26
20860;BME280;10590;48.154;11.514;2023-02-19T21:43:29;96627.88;;;7.46;65.87
20860;BME280;10590;48.154;11.514;2023-02-19T21:48:31;96638.50;;;7.46;65.75
20860;BME280;10590;48.154;11.514;2023-02-19T21:53:34;96626.88;;;7.31;66.28
20860;BME280;10590;48.154;11.514;2023-02-19T21:58:36;96630.56;;;7.35;66.04
20860;BME280;10590;48.154;11.514;2023-02-19T22:03:37;96626.06;;;7.31;66.48
20860;BME280;10590;48.154;11.514;2023-02-19T22:08:41;96629.25;;;7.33;66.36
20860;BME280;10590;48.154;11.514;2023-02-19T22:13:43;96623.44;;;7.26;66.37
20860;BME280;10590;48.154;11.514;2023-02-19T22:18:45;96639.63;;;7.29;66.73
20860;BME280;10590;48.154;11.514;2023-02-19T22:23:51;96638.84;;;7.24;66.52
20860;BME280;10590;48.154;11.514;2023-02-19T22:28:53;96629.28;;;7.23;66.77
20860;BME280;10590;48.154;11.514;2023-02-19T22:33:55;96624.78;;;7.13;66.66
20860;BME280;10590;48.154;11.514;2023-02-19T22:38:58;96631.41;;;7.21;66.38
20860;BME280;10590;48.154;11.514;2023-02-19T22:44:01;96637.25;;;7.18;67.00
20860;BME280;10590;48.154;11.514;2023-02-19T22:49:04;96642.03;;;7.21;66.91
20860;BME280;10590;48.154;11.514;2023-02-19T22:54:07;96636.44;;;7.17;67.32
20860;BME280;10590;48.154;11.514;2023-02-19T22:59:09;96644.66;;;7.31;66.23
20860;BME280;10590;48.154;11.514;2023-02-19T23:04:10;96657.94;;;7.31;66.18
20860;BME280;10590;48.154;11.514;2023-02-19T23:09:16;96656.34;;;7.25;66.22
20860;BME280;10590;48.154;11.514;2023-02-19T23:14:20;96661.38;;;7.26;66.45
20860;BME280;10590;48.154;11.514;2023-02-19T23:19:25;96651.06;;;7.15;66.58
20860;BME280;10590;48.154;11.514;2023-02-19T23:24:28;96678.38;;;7.20;66.75
20860;BME280;10590;48.154;11.514;2023-02-19T23:29:30;96675.47;;;7.22;66.32
20860;BME280;10590;48.154;11.514;2023-02-19T23:34:31;96674.41;;;7.18;66.42
20860;BME280;10590;48.154;11.514;2023-02-19T23:39:34;96674.41;;;7.18;66.72
20860;BME280;10590;48.154;11.514;2023-02-19T23:44:36;96668.06;;;7.09;67.36
20860;BME280;10590;48.154;11.514;2023-02-19T23:49:38;96674.94;;;7.15;67.50
20860;BME280;10590;48.154;11.514;2023-02-19T23:54:41;96665.13;;;7.10;67.42
20860;BME280;10590;48.154;11.514;2023-02-19T23:59:42;96672.03;;;7.06;67.83
